createdAt,value
2022-09-06T00:04:27.693Z,58.86
2022-09-06T00:09:30.790Z,58.86
2022-09-06T00:14:36.935Z,58.85
2022-09-06T00:19:40.045Z,59.13
2022-09-06T00:24:43.182Z,59.22
2022-09-06T00:29:46.242Z,59.32
2022-09-06T00:34:52.608Z,59.14
2022-09-06T00:39:55.733Z,59.13
2022-09-06T00:44:59.855Z,59.51
2022-09-06T00:50:04.292Z,59.74
2022-09-06T00:55:10.571Z,59.98
2022-09-06T01:00:14.176Z,60.32
2022-09-06T01:05:17.757Z,60.59
2022-09-06T01:11:03.454Z,60.61
2022-09-06T01:16:35.745Z,60.80
2022-09-06T01:22:02.071Z,60.82
2022-09-06T01:27:29.694Z,61.01
2022-09-06T01:33:02.031Z,61.07
2022-09-06T01:38:08.768Z,61.04
2022-09-06T01:43:18.927Z,61.10
2022-09-06T01:48:46.136Z,61.42
2022-09-06T01:54:27.358Z,61.70
2022-09-06T02:00:12.213Z,61.86
2022-09-06T02:05:38.028Z,61.90
2022-09-06T02:10:52.293Z,62.07
2022-09-06T02:16:05.135Z,62.25
2022-09-06T02:21:10.618Z,67.26
2022-09-06T02:26:22.294Z,61.74
2022-09-06T02:31:53.476Z,52.79
2022-09-06T02:36:56.935Z,53.12
2022-09-06T02:42:05.210Z,54.28
2022-09-06T02:47:08.409Z,55.33
2022-09-06T02:52:12.157Z,55.92
2022-09-06T02:57:15.676Z,56.61
2022-09-06T03:02:18.873Z,57.39
2022-09-06T03:07:22.114Z,58.07
2022-09-06T03:12:25.175Z,58.67
2022-09-06T03:17:28.481Z,59.35
2022-09-06T03:22:31.593Z,59.84
2022-09-06T03:27:35.283Z,60.37
2022-09-06T03:32:41.037Z,60.77
2022-09-06T03:37:44.173Z,60.91
2022-09-06T03:42:47.207Z,61.24
2022-09-06T03:47:50.299Z,61.51
2022-09-06T03:52:53.372Z,61.82
2022-09-06T03:57:56.438Z,62.00
2022-09-06T04:03:01.851Z,62.30
2022-09-06T04:08:06.334Z,67.60
2022-09-06T04:13:09.378Z,62.31
2022-09-06T04:18:12.461Z,53.34
2022-09-06T04:23:16.683Z,53.38
2022-09-06T04:28:20.246Z,54.64
2022-09-06T04:33:29.453Z,55.56
2022-09-06T04:38:40.687Z,56.56
2022-09-06T04:43:43.810Z,57.41
2022-09-06T04:48:49.164Z,58.30
2022-09-06T04:53:52.679Z,59.19
2022-09-06T04:58:56.000Z,59.46
2022-09-06T05:03:59.099Z,59.86
2022-09-06T05:09:02.136Z,60.02
2022-09-06T05:14:05.230Z,60.21
2022-09-06T05:19:08.255Z,60.86
2022-09-06T05:24:12.105Z,60.75
2022-09-06T05:29:15.230Z,57.41
2022-09-06T05:34:18.365Z,49.83
2022-09-06T05:39:22.183Z,44.79
2022-09-06T05:44:25.317Z,44.59
2022-09-06T05:49:32.360Z,46.08
2022-09-06T05:54:35.416Z,48.05
2022-09-06T05:59:38.467Z,49.57
2022-09-06T06:04:44.656Z,50.60
2022-09-06T06:09:47.743Z,51.47
2022-09-06T06:14:50.790Z,52.93
2022-09-06T06:19:54.920Z,53.57
2022-09-06T06:24:57.957Z,54.00
2022-09-06T06:30:01.010Z,54.24
2022-09-06T06:35:04.450Z,54.21
2022-09-06T06:40:08.631Z,54.69
2022-09-06T06:45:11.773Z,54.61
2022-09-06T06:50:14.995Z,54.16
2022-09-06T06:55:18.056Z,54.05
2022-09-06T07:00:24.051Z,53.83
2022-09-06T07:10:52.605Z,52.87
2022-09-06T07:16:19.707Z,53.12
2022-09-06T07:21:42.512Z,52.98
2022-09-06T07:32:12.124Z,52.55
2022-09-06T07:37:15.728Z,52.20
2022-09-06T07:42:18.978Z,51.75
2022-09-06T07:58:08.435Z,50.59
2022-09-06T08:03:11.607Z,50.09
2022-09-06T08:13:38.363Z,48.92
2022-09-06T08:18:42.316Z,49.09
2022-09-06T08:23:51.666Z,48.87
2022-09-06T08:28:57.641Z,48.21
2022-09-06T08:34:01.858Z,48.42
2022-09-06T08:39:07.609Z,48.48
2022-09-06T08:49:46.389Z,48.57
2022-09-06T08:55:36.837Z,48.66
2022-09-06T09:00:42.279Z,48.66
2022-09-06T09:05:52.583Z,48.55
2022-09-06T09:11:06.956Z,48.11
2022-09-06T09:16:10.236Z,47.64
2022-09-06T09:21:14.216Z,47.37
2022-09-06T09:26:17.423Z,47.85
2022-09-06T09:31:39.047Z,47.69
2022-09-06T09:42:07.532Z,46.33
2022-09-06T09:47:33.238Z,47.30
2022-09-06T09:52:44.442Z,47.30
2022-09-06T09:57:51.079Z,46.71
2022-09-06T10:02:54.173Z,46.58
2022-09-06T10:07:59.119Z,45.72
2022-09-06T10:13:29.813Z,45.29
2022-09-06T10:18:44.118Z,46.37
2022-09-06T10:24:26.991Z,46.14
2022-09-06T10:29:45.887Z,45.67
2022-09-06T10:35:13.253Z,45.78
2022-09-06T10:40:30.952Z,45.50
2022-09-06T10:46:16.158Z,45.12
2022-09-06T10:51:50.384Z,44.97
2022-09-06T10:56:56.986Z,45.51
2022-09-06T11:02:24.022Z,45.22
2022-09-06T11:07:34.609Z,45.72
2022-09-06T11:12:46.267Z,45.55
2022-09-06T11:18:21.272Z,45.13
2022-09-06T11:23:40.193Z,44.99
2022-09-06T11:28:52.630Z,45.26
2022-09-06T11:34:11.785Z,45.01
2022-09-06T11:44:50.191Z,45.15
2022-09-06T11:49:53.351Z,44.76
2022-09-06T11:54:56.325Z,44.17
2022-09-06T12:00:04.714Z,43.67
2022-09-06T12:05:13.022Z,44.03
2022-09-06T12:10:31.285Z,43.62
2022-09-06T12:15:52.197Z,42.24
2022-09-06T12:20:55.311Z,42.15
2022-09-06T12:25:58.967Z,42.55
2022-09-06T12:31:25.914Z,42.76
2022-09-06T12:36:32.159Z,42.40
2022-09-06T12:41:43.841Z,42.93
2022-09-06T12:46:52.166Z,42.96
2022-09-06T12:52:13.069Z,42.45
2022-09-06T12:57:24.569Z,42.77
2022-09-06T13:02:53.490Z,42.27
2022-09-06T13:08:02.062Z,42.01
2022-09-06T13:13:05.302Z,41.91
2022-09-06T13:18:32.274Z,42.23
2022-09-06T13:23:51.111Z,42.50
2022-09-06T13:28:54.193Z,41.72
2022-09-06T13:33:59.833Z,41.81
2022-09-06T13:39:04.684Z,39.64
2022-09-06T13:44:17.284Z,39.87
2022-09-06T13:49:20.406Z,40.54
2022-09-06T13:54:23.703Z,39.80
2022-09-06T13:59:26.790Z,40.32
2022-09-06T14:04:29.989Z,39.75
2022-09-06T14:09:33.543Z,38.50
2022-09-06T14:14:36.684Z,39.71
2022-09-06T14:19:40.802Z,39.31
2022-09-06T14:24:43.992Z,39.02
2022-09-06T14:29:46.848Z,39.14
2022-09-06T14:34:49.708Z,38.02
2022-09-06T14:39:52.638Z,38.89
2022-09-06T14:44:55.764Z,39.35
2022-09-06T14:50:00.826Z,39.14
2022-09-06T14:55:04.886Z,39.35
2022-09-06T15:00:09.285Z,39.04
2022-09-06T15:05:12.371Z,38.31
2022-09-06T15:10:15.485Z,38.84
2022-09-06T15:15:18.636Z,38.59
2022-09-06T15:20:21.712Z,39.06
2022-09-06T15:25:24.842Z,39.51
2022-09-06T15:30:27.920Z,39.46
2022-09-06T15:35:34.336Z,39.35
2022-09-06T15:40:38.199Z,39.06
2022-09-06T15:45:50.714Z,38.43
2022-09-06T15:50:54.043Z,38.59
2022-09-06T15:56:00.802Z,38.73
2022-09-06T16:01:18.790Z,38.84
2022-09-06T16:06:28.210Z,38.87
2022-09-06T16:11:33.655Z,39.10
2022-09-06T16:16:37.558Z,39.06
2022-09-06T16:21:43.221Z,39.07
2022-09-06T16:26:46.871Z,38.98
2022-09-06T16:31:59.836Z,39.14
2022-09-06T16:37:08.023Z,39.07
2022-09-06T16:42:12.688Z,39.11
2022-09-06T16:47:16.736Z,39.22
2022-09-06T16:52:20.407Z,39.26
2022-09-06T16:57:26.395Z,39.32
2022-09-06T17:02:29.540Z,39.19
2022-09-06T17:07:33.129Z,39.59
2022-09-06T17:12:36.184Z,39.62
2022-09-06T17:17:39.258Z,39.88
2022-09-06T17:22:42.329Z,40.10
2022-09-06T17:27:45.429Z,40.17
2022-09-06T17:32:48.645Z,40.30
2022-09-06T17:37:51.964Z,41.01
2022-09-06T17:42:54.837Z,40.85
2022-09-06T17:48:03.331Z,41.06
2022-09-06T17:53:06.487Z,42.23
2022-09-06T17:58:09.586Z,42.57
2022-09-06T18:03:12.737Z,42.98
2022-09-06T18:08:15.848Z,43.56
2022-09-06T18:13:19.844Z,43.21
2022-09-06T18:18:26.185Z,43.70
2022-09-06T18:23:31.175Z,44.02
2022-09-06T18:28:37.233Z,43.47
2022-09-06T18:33:42.620Z,44.05
2022-09-06T18:38:46.311Z,44.94
2022-09-06T18:43:49.769Z,44.75
2022-09-06T18:48:52.954Z,44.71
2022-09-06T18:53:58.591Z,45.00
2022-09-06T18:59:02.326Z,45.63
2022-09-06T19:04:06.466Z,46.51
2022-09-06T19:09:14.289Z,46.48
2022-09-06T19:14:18.303Z,47.07
2022-09-06T19:19:22.899Z,47.57
2022-09-06T19:24:26.089Z,47.71
2022-09-06T19:29:29.279Z,47.05
2022-09-06T19:34:33.932Z,46.89
2022-09-06T19:39:37.494Z,46.65
2022-09-06T19:44:40.753Z,46.52
2022-09-06T19:49:43.919Z,47.75
2022-09-06T19:54:47.028Z,48.04
2022-09-06T19:59:50.236Z,48.81
2022-09-06T20:04:53.269Z,49.07
2022-09-06T20:09:56.665Z,49.21
2022-09-06T20:14:59.792Z,48.46
2022-09-06T20:20:04.517Z,48.00
2022-09-06T20:25:08.868Z,48.79
2022-09-06T20:30:12.502Z,49.69
2022-09-06T20:35:15.627Z,49.65
2022-09-06T20:40:18.725Z,50.06
2022-09-06T20:45:25.387Z,50.32
2022-09-06T20:50:29.105Z,50.63
2022-09-06T20:55:32.185Z,49.75
2022-09-06T21:00:40.090Z,49.33
2022-09-06T21:05:44.071Z,49.36
2022-09-06T21:10:47.158Z,49.36
2022-09-06T21:15:50.314Z,50.03
2022-09-06T21:20:56.589Z,50.08
2022-09-06T21:26:06.089Z,50.54
2022-09-06T21:31:11.982Z,51.12
2022-09-06T21:36:41.700Z,51.50
2022-09-06T21:41:44.895Z,52.07
2022-09-06T21:46:48.067Z,51.96
2022-09-06T21:51:52.137Z,51.71
2022-09-06T21:56:55.199Z,52.11
2022-09-06T22:01:58.963Z,51.99
2022-09-06T22:07:02.088Z,52.42
2022-09-06T22:12:05.603Z,52.60
2022-09-06T22:17:11.273Z,53.16
2022-09-06T22:22:14.690Z,53.34
2022-09-06T22:27:17.792Z,53.37
2022-09-06T22:32:21.512Z,53.90
2022-09-06T22:37:25.013Z,54.17
2022-09-06T22:42:28.528Z,54.28
2022-09-06T22:47:31.563Z,54.51
2022-09-06T22:52:34.607Z,54.69
2022-09-06T22:57:37.753Z,54.86
2022-09-06T23:02:40.830Z,55.14
2022-09-06T23:07:43.990Z,55.37
2022-09-06T23:12:47.276Z,55.65
2022-09-06T23:17:50.768Z,55.83
2022-09-06T23:22:53.858Z,55.81
2022-09-06T23:28:00.502Z,55.85
2022-09-06T23:33:04.003Z,56.01
2022-09-06T23:38:07.080Z,56.23
2022-09-06T23:43:10.175Z,56.48
2022-09-06T23:48:13.272Z,56.71
2022-09-06T23:53:18.387Z,56.77
2022-09-06T23:58:21.465Z,57.00
